Time;durP1;ratioP1;P1;durP2;ratioP2;P2;SDS_P1;SDS_P2;PMS_P1;PMS_P2;Temp;Humidity;BMP_temperature;BMP_pressure;BME280_temperature;BME280_humidity;BME280_pressure;Samples;Min_cycle;Max_cycle;Signal;HPM_P1;HPM_P2
2022/07/05 00:02:20;;;;;;;6.95;4.50;;;;;;;15.38;80.88;68485.47;5060178;28;20062;-81
2022/07/05 00:04:46;;;;;;;7.07;4.90;;;;;;;15.42;80.08;68481.41;5062537;28;20033;-80
2022/07/05 00:07:20;;;;;;;6.75;5.25;;;;;;;15.40;80.45;68485.09;5067609;28;20048;-78
2022/07/05 00:09:57;;;;;;;6.82;4.80;;;;;;;15.32;80.88;68478.66;5075304;28;20079;-80
2022/07/05 00:12:28;;;;;;;8.02;5.07;;;;;;;15.33;80.98;68477.69;5059540;28;20040;-81
2022/07/05 00:14:54;;;;;;;5.95;5.35;;;;;;;15.29;81.03;68475.22;5058763;28;20032;-79
2022/07/05 00:17:19;;;;;;;5.85;4.60;;;;;;;15.23;80.88;68466.28;5059272;28;20055;-81
2022/07/05 00:19:45;;;;;;;7.20;5.00;;;;;;;;;;5058056;28;20477;-82
2022/07/05 00:22:10;;;;;;;6.43;5.60;;;;;;;;;;5062284;28;20044;-79
2022/07/05 00:24:35;;;;;;;6.55;5.25;;;;;;;15.11;81.70;68453.19;5056915;28;20048;-79
2022/07/05 00:27:01;;;;;;;7.97;5.57;;;;;;;15.05;82.03;68446.34;5057746;28;20056;-81
2022/07/05 00:29:26;;;;;;;6.25;5.30;;;;;;;;;;5056350;28;20033;-78
2022/07/05 00:31:52;;;;;;;6.43;5.50;;;;;;;14.95;82.97;68434.97;5058534;28;20539;-78
2022/07/05 00:34:17;;;;;;;6.00;5.25;;;;;;;14.82;84.43;68420.16;5063826;28;20047;-82
2022/07/05 00:36:43;;;;;;;7.05;4.85;;;;;;;14.72;86.11;68411.44;5060190;28;20048;-78
2022/07/05 00:39:09;;;;;;;7.28;5.15;;;;;;;14.57;87.14;68387.47;5075500;28;20058;-79
2022/07/05 00:41:34;;;;;;;6.55;5.22;;;;;;;14.53;87.60;68388.28;5051918;28;20071;-79
2022/07/05 00:44:02;;;;;;;7.30;4.90;;;;;;;;;;5056976;28;20127;-80
2022/07/05 00:46:28;;;;;;;6.05;4.85;;;;;;;;;;5061141;28;20062;-80
2022/07/05 00:48:53;;;;;;;7.30;5.25;;;;;;;;;;5067198;28;20045;-79
2022/07/05 00:51:19;;;;;;;8.13;5.15;;;;;;;14.31;88.16;68357.88;5057590;28;20072;-79
2022/07/05 00:53:45;;;;;;;6.85;5.93;;;;;;;14.24;88.39;68358.47;5062578;28;20040;-80
2022/07/05 00:56:12;;;;;;;8.68;5.95;;;;;;;14.21;88.79;68352.97;5057152;28;20049;-79
2022/07/05 00:58:38;;;;;;;7.78;5.60;;;;;;;14.14;89.09;68345.00;5063722;28;20100;-81
2022/07/05 01:01:06;;;;;;;7.05;5.80;;;;;;;14.07;89.03;68337.03;5059851;28;20659;-82
2022/07/05 01:03:32;;;;;;;7.90;6.00;;;;;;;14.00;89.67;68329.06;5059177;28;20108;-79
2022/07/05 01:06:00;;;;;;;8.13;5.47;;;;;;;13.93;90.09;68323.78;5062409;28;20036;-79
2022/07/05 01:08:26;;;;;;;10.13;5.90;;;;;;;13.90;90.50;68317.69;5055829;28;20746;-82
2022/07/05 01:10:53;;;;;;;7.50;5.47;;;;;;;13.82;90.75;68303.81;5055962;28;20047;-79
2022/07/05 01:13:19;;;;;;;8.20;6.10;;;;;;;13.80;90.64;68301.53;5057879;28;20048;-82
2022/07/05 01:15:44;;;;;;;7.85;5.75;;;;;;;;;;5059085;28;20041;-80
2022/07/05 01:18:10;;;;;;;7.57;6.00;;;;;;;13.69;91.30;68294.34;5062027;28;20098;-80
2022/07/05 01:20:36;;;;;;;7.60;5.93;;;;;;;13.66;91.78;68290.94;5061049;28;20053;-78
2022/07/05 01:23:03;;;;;;;9.30;6.28;;;;;;;13.60;92.04;68284.69;5058257;28;20571;-80
2022/07/05 01:25:30;;;;;;;7.60;6.35;;;;;;;13.56;92.54;68282.81;5056077;28;20052;-80
2022/07/05 01:27:58;;;;;;;9.90;6.38;;;;;;;13.47;92.49;68265.13;5055998;28;20052;-79
2022/07/05 01:30:23;;;;;;;8.13;6.38;;;;;;;;;;5060681;28;20033;-80
2022/07/05 01:32:49;;;;;;;7.95;6.80;;;;;;;;;;5059669;28;20117;-79
2022/07/05 01:35:23;;;;;;;8.32;6.28;;;;;;;13.35;93.55;68256.25;5058388;28;20037;-78
2022/07/05 01:37:49;;;;;;;7.65;6.03;;;;;;;13.27;93.99;68250.97;5057277;28;20044;-80
2022/07/05 01:40:15;;;;;;;7.38;5.65;;;;;;;13.23;94.08;68243.72;5058265;28;20623;-82
2022/07/05 01:42:40;;;;;;;7.05;5.82;;;;;;;13.17;94.43;68239.56;5060018;28;20047;-78
2022/07/05 01:45:06;;;;;;;7.53;6.30;;;;;;;13.12;94.73;68230.63;5053235;28;20052;-78
2022/07/05 01:47:36;;;;;;;9.20;6.38;;;;;;;13.12;95.15;68231.22;5054992;28;20045;-79
2022/07/05 01:50:04;;;;;;;9.63;6.05;;;;;;;13.10;95.28;68228.94;5049358;28;20039;-81
2022/07/05 01:52:31;;;;;;;7.18;6.07;;;;;;;13.05;95.22;68229.16;5060484;28;20095;-79
2022/07/05 01:55:01;;;;;;;7.10;5.72;;;;;;;12.99;95.05;68216.44;5072299;28;20040;-81
2022/07/05 01:57:27;;;;;;;8.63;6.35;;;;;;;12.95;94.92;68211.91;5055963;28;20064;-80
2022/07/05 01:59:52;;;;;;;8.38;7.03;;;;;;;12.92;95.15;68214.41;5052599;28;21407;-78
2022/07/05 02:02:18;;;;;;;7.38;6.43;;;;;;;12.89;95.64;68205.66;5056173;28;20098;-79
2022/07/05 02:04:43;;;;;;;9.73;7.00;;;;;;;12.83;96.14;68202.06;5059343;28;20037;-78
2022/07/05 02:07:09;;;;;;;7.43;6.13;;;;;;;12.81;96.07;68196.53;5057767;28;20759;-79
2022/07/05 02:09:35;;;;;;;8.40;6.22;;;;;;;12.81;95.30;68199.78;5060460;28;20045;-80
2022/07/05 02:12:02;;;;;;;7.35;5.72;;;;;;;;;;5055368;28;20039;-79
2022/07/05 02:14:27;;;;;;;6.80;5.85;;;;;;;;;;5059215;28;20058;-78
2022/07/05 02:16:53;;;;;;;7.85;6.30;;;;;;;12.66;96.19;68180.06;5064881;22;20054;-86
2022/07/05 02:19:19;;;;;;;7.53;6.25;;;;;;;12.61;96.53;68174.38;5048259;28;20045;-85
2022/07/05 02:21:44;;;;;;;7.85;6.32;;;;;;;12.57;96.59;68169.81;5038785;28;20656;-86
2022/07/05 02:24:10;;;;;;;7.38;6.45;;;;;;;12.52;96.80;68164.16;5024199;28;20075;-86
2022/07/05 02:26:36;;;;;;;8.27;6.78;;;;;;;12.47;96.73;68163.81;5041205;28;20568;-85
2022/07/05 02:29:03;;;;;;;9.18;6.03;;;;;;;12.45;97.00;68156.19;5041230;28;20033;-86
2022/07/05 02:31:28;;;;;;;7.25;5.72;;;;;;;;;;5040082;28;20160;-86
2022/07/05 02:33:54;;;;;;;9.35;6.68;;;;;;;12.35;97.27;68148.63;5029382;28;20487;-85
2022/07/05 02:36:19;;;;;;;9.15;6.90;;;;;;;12.28;97.62;68140.66;5042481;28;20056;-86
2022/07/05 02:38:45;;;;;;;9.27;7.10;;;;;;;12.26;98.53;68135.16;5042921;28;20075;-87
2022/07/05 02:41:12;;;;;;;7.75;6.50;;;;;;;12.25;97.78;68134.03;5024529;28;20051;-86
2022/07/05 02:43:41;;;;;;;8.50;6.50;;;;;;;12.23;97.94;68137.06;5036279;28;20045;-86
2022/07/05 02:46:08;;;;;;;7.75;6.28;;;;;;;12.21;97.78;68132.72;5017624;28;20064;-86
2022/07/05 02:48:34;;;;;;;7.78;6.15;;;;;;;;;;5043963;28;20200;-86
2022/07/05 02:50:59;;;;;;;7.05;6.30;;;;;;;12.16;97.88;68124.38;5043631;28;20100;-86
2022/07/05 02:53:25;;;;;;;7.57;6.30;;;;;;;12.14;98.00;68122.09;5008313;28;20118;-86
2022/07/05 02:55:51;;;;;;;8.45;6.68;;;;;;;;;;5033764;28;20379;-85
2022/07/05 02:58:17;;;;;;;8.50;6.40;;;;;;;12.08;97.96;68118.50;5033018;28;20394;-85
2022/07/05 03:00:43;;;;;;;8.05;6.32;;;;;;;12.09;98.20;68121.75;5042773;28;20039;-86
2022/07/05 03:03:09;;;;;;;9.48;7.00;;;;;;;12.04;98.23;68116.63;5043449;28;20029;-86
2022/07/05 03:05:34;;;;;;;9.23;7.28;;;;;;;12.03;98.26;68114.94;5027424;28;20045;-85
2022/07/05 03:08:00;;;;;;;9.32;6.90;;;;;;;11.98;98.04;68107.16;5027505;28;20037;-86
2022/07/05 03:10:26;;;;;;;8.10;6.50;;;;;;;11.95;97.93;68101.63;5041928;28;20629;-85
2022/07/05 03:12:51;;;;;;;8.23;6.60;;;;;;;11.94;98.10;68100.50;5029526;28;20036;-85
2022/07/05 03:15:16;;;;;;;9.73;8.13;;;;;;;11.88;98.38;68093.69;5043451;28;20075;-87
2022/07/05 03:17:42;;;;;;;10.52;7.93;;;;;;;11.84;98.84;68083.78;5048940;28;20080;-85
2022/07/05 03:20:08;;;;;;;8.68;7.63;;;;;;;11.89;98.92;68096.94;5039240;28;20512;-87
2022/07/05 03:22:33;;;;;;;9.90;7.50;;;;;;;11.81;98.79;68085.72;5041419;28;20532;-86
2022/07/05 03:24:59;;;;;;;9.23;7.07;;;;;;;11.78;98.88;68087.63;5025575;28;20037;-86
2022/07/05 03:27:24;;;;;;;11.23;7.75;;;;;;;11.76;98.74;68082.69;5040324;28;20114;-86
2022/07/05 03:29:49;;;;;;;9.88;7.65;;;;;;;11.74;99.11;68080.44;5041011;28;20378;-86
2022/07/05 03:32:15;;;;;;;10.70;8.13;;;;;;;11.77;98.85;68081.19;5042096;28;20037;-88
2022/07/05 03:34:40;;;;;;;10.30;7.97;;;;;;;11.73;99.11;68076.63;5046081;28;20073;-87
2022/07/05 03:37:05;;;;;;;9.27;7.72;;;;;;;11.68;99.37;68071.53;5044557;28;20455;-88
2022/07/05 03:39:31;;;;;;;9.80;8.57;;;;;;;11.64;99.56;68074.41;5046613;28;20128;-87
2022/07/05 03:41:56;;;;;;;10.88;7.78;;;;;;;11.63;99.47;68067.94;5042285;28;20548;-87
2022/07/05 03:44:21;;;;;;;10.57;7.60;;;;;;;11.59;99.54;68061.28;5046160;28;20096;-86
2022/07/05 03:46:47;;;;;;;10.30;8.00;;;;;;;11.60;99.52;68062.44;5041105;28;20076;-86
2022/07/05 03:49:12;;;;;;;11.30;8.75;;;;;;;11.63;99.61;68060.50;5038820;28;20038;-87
2022/07/05 03:51:38;;;;;;;10.15;8.48;;;;;;;11.65;99.41;68067.53;5052064;28;20052;-88
2022/07/05 03:54:03;;;;;;;11.40;8.88;;;;;;;11.60;99.78;68065.09;5037035;28;20090;-85
2022/07/05 03:56:29;;;;;;;10.95;8.27;;;;;;;11.59;99.95;68063.38;5040552;28;20065;-86
2022/07/05 03:58:54;;;;;;;9.90;7.85;;;;;;;11.60;99.57;68061.88;5045654;28;20101;-87
2022/07/05 04:01:20;;;;;;;11.73;8.82;;;;;;;;;;5044873;28;20041;-87
2022/07/05 04:03:45;;;;;;;10.63;8.95;;;;;;;;;;5045866;28;20052;-85
2022/07/05 04:06:11;;;;;;;11.00;9.27;;;;;;;11.65;99.97;68072.88;5047213;28;20048;-87
2022/07/05 04:08:37;;;;;;;11.15;9.20;;;;;;;11.69;100.00;68072.09;5048582;28;20303;-88
2022/07/05 04:11:03;;;;;;;11.50;9.18;;;;;;;11.75;99.92;68081.56;5045141;28;20132;-87
2022/07/05 04:13:28;;;;;;;10.68;9.52;;;;;;;11.78;99.86;68084.97;5025849;28;20329;-86
2022/07/05 04:15:55;;;;;;;12.20;9.70;;;;;;;11.81;99.73;68085.16;5047191;28;20045;-86
2022/07/05 04:18:21;;;;;;;11.85;9.93;;;;;;;11.83;99.81;68088.00;5048003;28;20037;-88
2022/07/05 04:20:46;;;;;;;12.20;9.80;;;;;;;11.84;99.89;68089.13;5046352;28;20037;-86
2022/07/05 04:23:11;;;;;;;12.55;9.80;;;;;;;;;;5046290;28;20320;-86
2022/07/05 04:25:37;;;;;;;10.75;9.50;;;;;;;;;;5041071;28;20041;-87
2022/07/05 04:28:02;;;;;;;11.18;9.85;;;;;;;11.96;99.33;68102.78;5040529;28;20051;-87
2022/07/05 04:30:28;;;;;;;12.40;9.80;;;;;;;12.00;99.30;68106.19;5030861;28;20087;-86
2022/07/05 04:32:53;;;;;;;11.82;10.05;;;;;;;12.06;99.79;68115.69;5039557;28;20043;-88
2022/07/05 04:35:18;;;;;;;11.60;9.85;;;;;;;;;;5036817;28;20037;-86
2022/07/05 04:37:45;;;;;;;11.70;10.50;;;;;;;12.30;99.68;68145.59;5033356;28;20504;-86
2022/07/05 04:40:12;;;;;;;11.02;9.90;;;;;;;12.39;99.65;68150.50;5031021;28;20239;-86
2022/07/05 04:42:38;;;;;;;11.48;10.27;;;;;;;12.52;99.62;68164.16;5046491;28;20125;-87
2022/07/05 04:45:04;;;;;;;14.13;11.10;;;;;;;12.68;99.12;68181.75;5042212;28;20488;-87
2022/07/05 04:47:30;;;;;;;13.57;10.40;;;;;;;12.79;99.61;68197.50;5041450;28;20438;-87
2022/07/05 04:49:59;;;;;;;12.55;10.70;;;;;;;12.85;99.56;68196.31;5027552;28;20053;-89
2022/07/05 04:52:25;;;;;;;12.75;10.50;;;;;;;12.96;99.01;68216.25;5040156;28;20401;-86
2022/07/05 04:54:51;;;;;;;11.73;10.15;;;;;;;13.02;98.80;68219.84;5040888;28;20043;-86
2022/07/05 04:57:17;;;;;;;12.25;10.77;;;;;;;13.12;99.01;68230.63;5043669;28;20475;-87
2022/07/05 04:59:42;;;;;;;11.90;10.68;;;;;;;13.15;98.67;68234.06;5044933;28;20124;-86
2022/07/05 05:02:08;;;;;;;12.20;10.90;;;;;;;13.21;98.54;68241.47;5032665;28;20041;-86
2022/07/05 05:04:33;;;;;;;14.18;10.85;;;;;;;13.25;98.29;68246.03;5044115;28;20037;-86
2022/07/05 05:06:58;;;;;;;12.48;10.95;;;;;;;13.34;98.09;68257.78;5038045;28;20036;-86
2022/07/05 05:09:24;;;;;;;12.68;10.95;;;;;;;13.42;97.60;68264.78;5018397;28;20044;-86
2022/07/05 05:11:49;;;;;;;13.75;11.52;;;;;;;;;;5042917;28;20029;-86
2022/07/05 05:14:15;;;;;;;12.10;10.37;;;;;;;13.68;97.46;68298.59;5043731;28;20064;-86
2022/07/05 05:16:40;;;;;;;16.42;10.48;;;;;;;13.87;95.69;68314.28;5043864;28;20447;-86
2022/07/05 05:19:06;;;;;;;16.08;10.35;;;;;;;;;;5043131;28;20519;-86
2022/07/05 05:21:31;;;;;;;15.40;10.70;;;;;;;14.22;94.09;68354.13;5045794;28;20058;-86
2022/07/05 05:23:57;;;;;;;12.68;9.30;;;;;;;14.35;93.65;68371.00;5044302;28;20485;-88
2022/07/05 05:26:22;;;;;;;10.75;9.07;;;;;;;14.45;92.11;68379.16;5030427;28;20508;-86
2022/07/05 05:28:47;;;;;;;12.73;8.85;;;;;;;;;;5039696;28;20523;-86
2022/07/05 05:31:13;;;;;;;11.55;8.70;;;;;;;14.68;88.77;68404.22;5042543;28;20115;-86
2022/07/05 05:33:39;;;;;;;9.70;8.63;;;;;;;14.78;87.62;68416.16;5042064;28;20029;-86
2022/07/05 05:36:04;;;;;;;11.57;8.57;;;;;;;;;;5043267;28;20044;-87
2022/07/05 05:38:30;;;;;;;11.30;8.93;;;;;;;15.01;86.78;68436.44;5028998;28;20044;-87
2022/07/05 05:40:55;;;;;;;10.73;8.50;;;;;;;15.14;86.46;68450.13;5039907;28;20248;-87
2022/07/05 05:43:20;;;;;;;10.30;7.68;;;;;;;;;;5032619;28;20037;-87
2022/07/05 05:45:46;;;;;;;8.75;7.90;;;;;;;15.25;86.21;68468.00;5044023;28;20045;-86
2022/07/05 05:48:11;;;;;;;11.50;7.65;;;;;;;;;;5044887;28;20039;-86
2022/07/05 05:50:38;;;;;;;10.55;7.53;;;;;;;;;;5044582;28;20051;-88
2022/07/05 05:53:04;;;;;;;9.40;7.50;;;;;;;15.45;83.99;68490.78;5046083;28;20049;-88
2022/07/05 05:55:31;;;;;;;9.05;6.13;;;;;;;15.60;83.58;68501.38;5050666;28;20520;-88
2022/07/05 05:57:59;;;;;;;8.02;5.65;;;;;;;;;;5043036;28;20037;-86
2022/07/05 06:00:25;;;;;;;7.90;5.97;;;;;;;15.68;83.37;68511.06;5041901;28;20044;-89
2022/07/05 06:02:51;;;;;;;8.68;6.78;;;;;;;15.81;82.54;68530.69;5046002;28;20322;-87
2022/07/05 06:05:17;;;;;;;6.70;4.93;;;;;;;;;;5042165;28;20186;-87
2022/07/05 06:07:53;;;;;;;8.30;5.07;;;;;;;15.78;80.82;68527.81;5042297;28;20090;-88
2022/07/05 06:10:21;;;;;;;7.40;5.07;;;;;;;15.87;80.39;68532.16;5040894;28;20041;-89
2022/07/05 06:12:48;;;;;;;7.65;4.93;;;;;;;15.99;80.92;68545.81;5047553;28;20048;-88
2022/07/05 06:15:13;;;;;;;7.30;4.70;;;;;;;16.06;80.21;68552.66;5030102;28;20174;-87
2022/07/05 06:17:39;;;;;;;7.50;4.35;;;;;;;;;;5025821;28;20358;-88
2022/07/05 06:20:07;;;;;;;8.55;5.07;;;;;;;16.22;79.95;68576.84;5057532;28;20057;-89
2022/07/05 06:22:33;;;;;;;10.30;5.40;;;;;;;16.16;80.06;68564.63;5066032;28;20093;-89
2022/07/05 06:24:58;;;;;;;11.90;4.70;;;;;;;;;;5068760;28;20037;-89
2022/07/05 06:27:24;;;;;;;6.18;4.38;;;;;;;16.31;80.65;68586.53;5061045;28;20100;-87
2022/07/05 06:29:49;;;;;;;11.68;4.20;;;;;;;;;;5046076;28;20048;-87
2022/07/05 06:32:14;;;;;;;5.45;4.05;;;;;;;;;;5041500;28;20447;-88
2022/07/05 06:34:39;;;;;;;7.90;4.57;;;;;;;16.54;79.18;68612.19;5049152;28;20068;-86
2022/07/05 06:37:05;;;;;;;6.20;4.45;;;;;;;;;;5030263;28;20279;-87
2022/07/05 06:39:30;;;;;;;7.28;3.95;;;;;;;16.67;77.94;68629.13;5038819;28;20320;-87
2022/07/05 06:41:55;;;;;;;6.18;4.80;;;;;;;16.63;78.08;68613.81;5040510;28;20049;-87
2022/07/05 06:44:21;;;;;;;7.78;4.65;;;;;;;16.70;77.86;68630.44;5031812;28;20056;-87
2022/07/05 06:46:46;;;;;;;6.70;5.05;;;;;;;;;;5035102;28;20498;-87
2022/07/05 06:49:11;;;;;;;8.03;4.50;;;;;;;16.90;77.70;68652.69;5039715;28;20049;-87
2022/07/05 06:51:37;;;;;;;6.90;3.88;;;;;;;16.98;75.99;68661.25;5038139;28;20366;-88
2022/07/05 06:54:02;;;;;;;6.97;4.50;;;;;;;17.03;75.07;68661.00;5042138;28;20045;-88
2022/07/05 06:56:27;;;;;;;8.95;4.57;;;;;;;;;;5039999;28;20041;-88
2022/07/05 06:58:52;;;;;;;9.70;4.77;;;;;;;;;;5041936;28;20061;-87
2022/07/05 07:01:18;;;;;;;6.20;3.70;;;;;;;;;;5026026;28;20284;-86
2022/07/05 07:03:43;;;;;;;6.78;4.40;;;;;;;17.25;72.74;68691.47;5041056;28;20036;-87
2022/07/05 07:06:09;;;;;;;8.80;4.07;;;;;;;17.32;71.75;68699.47;5035605;28;20049;-87
2022/07/05 07:11:18;;;;;;;5.45;3.70;;;;;;;17.59;70.73;68723.75;5041654;28;20340;-87
2022/07/05 07:13:43;;;;;;;6.43;4.07;;;;;;;;;;5045376;28;20072;-87
2022/07/05 07:16:09;;;;;;;7.10;4.88;;;;;;;17.53;71.11;68714.78;5028719;28;20103;-87
2022/07/05 07:18:35;;;;;;;7.28;4.47;;;;;;;17.69;71.08;68735.16;5033577;28;20041;-87
2022/07/05 07:21:01;;;;;;;6.65;4.18;;;;;;;17.74;69.63;68740.84;5040572;28;20067;-87
2022/07/05 07:23:26;;;;;;;7.18;4.88;;;;;;;;;;5034068;28;20474;-87
2022/07/05 07:25:51;;;;;;;8.65;4.82;;;;;;;;;;5044000;28;20055;-87
2022/07/05 07:28:16;;;;;;;5.80;4.27;;;;;;;17.98;69.46;68767.72;5034242;28;20562;-87
2022/07/05 07:30:42;;;;;;;8.20;4.95;;;;;;;17.98;70.53;68772.50;5039527;28;20664;-88
2022/07/05 07:33:07;;;;;;;8.35;4.72;;;;;;;;;;5041690;28;20041;-87
2022/07/05 07:35:33;;;;;;;6.03;4.25;;;;;;;18.18;69.52;68789.97;5029995;28;20128;-88
2022/07/05 07:37:58;;;;;;;5.57;3.38;;;;;;;18.17;68.94;68794.22;5041704;28;20036;-88
2022/07/05 07:40:23;;;;;;;4.68;3.10;;;;;;;18.17;68.41;68788.25;5032493;28;20036;-88
2022/07/05 07:42:49;;;;;;;7.13;4.28;;;;;;;18.25;68.67;68797.94;5034794;28;20060;-89
2022/07/05 07:45:14;;;;;;;5.88;3.28;;;;;;;;;;5034773;28;20036;-89
2022/07/05 07:47:39;;;;;;;5.63;2.63;;;;;;;18.42;66.24;68816.22;5028928;28;20076;-89
2022/07/05 07:50:05;;;;;;;6.70;2.50;;;;;;;;;;5041860;28;20349;-87
2022/07/05 07:52:33;;;;;;;5.07;2.92;;;;;;;18.63;65.79;68845.59;5028914;28;20128;-89
2022/07/05 07:55:01;;;;;;;5.07;2.90;;;;;;;18.64;64.49;68835.38;5031794;28;21000;-88
2022/07/05 07:57:26;;;;;;;5.82;2.67;;;;;;;;;;5037978;28;20136;-89
2022/07/05 07:59:52;;;;;;;3.78;1.90;;;;;;;18.80;61.71;68863.88;5032081;28;20117;-91
2022/07/05 08:02:20;;;;;;;5.35;2.45;;;;;;;18.69;61.09;68847.03;5021783;28;20041;-88
2022/07/05 08:04:46;;;;;;;4.78;2.35;;;;;;;;;;5044267;28;20037;-89
2022/07/05 08:07:11;;;;;;;3.60;2.30;;;;;;;;;;5040573;28;20056;-88
2022/07/05 08:09:36;;;;;;;4.95;3.25;;;;;;;;;;5038690;28;20268;-90
2022/07/05 08:12:02;;;;;;;3.20;2.40;;;;;;;18.78;63.72;68862.16;5043926;28;20619;-90
2022/07/05 08:14:27;;;;;;;6.43;2.15;;;;;;;18.82;61.11;68861.34;5037683;28;20326;-89
2022/07/05 08:16:52;;;;;;;3.88;2.13;;;;;;;18.97;60.90;68877.91;5043237;28;21120;-90
2022/07/05 08:22:05;;;;;;;5.72;3.15;;;;;;;19.13;63.03;68901.59;5040316;28;20528;-89
2022/07/05 08:24:30;;;;;;;6.00;3.28;;;;;;;19.11;62.67;68893.91;5043867;28;20044;-89
2022/07/05 08:26:58;;;;;;;4.53;3.33;;;;;;;19.02;63.76;68889.03;5027547;28;20040;-89
2022/07/05 08:29:24;;;;;;;3.57;2.70;;;;;;;19.12;62.60;68903.13;5012849;28;20045;-89
2022/07/05 08:31:50;;;;;;;5.63;2.47;;;;;;;;;;5047771;28;20618;-89
2022/07/05 08:34:19;;;;;;;4.45;2.38;;;;;;;19.28;61.36;68909.50;5028792;28;20059;-90
2022/07/05 08:36:45;;;;;;;6.13;2.60;;;;;;;19.33;60.25;68918.47;5043447;28;20132;-89
2022/07/05 08:39:10;;;;;;;6.40;2.28;;;;;;;19.47;59.11;68931.19;5043773;28;20067;-90
2022/07/05 08:41:39;;;;;;;2.90;1.70;;;;;;;19.37;59.42;68927.88;5033087;28;20053;-90
2022/07/05 08:44:05;;;;;;;4.57;2.28;;;;;;;;;;5041615;28;20106;-92
2022/07/05 08:46:31;;;;;;;4.78;2.55;;;;;;;;;;5039878;28;20041;-87
2022/07/05 08:48:58;;;;;;;5.85;2.63;;;;;;;;;;5039498;28;20113;-89
2022/07/05 08:51:24;;;;;;;2.85;1.60;;;;;;;19.46;55.22;68937.59;5041170;28;20041;-88
2022/07/05 08:53:52;;;;;;;1.90;1.15;;;;;;;;;;5042857;28;20074;-87
2022/07/05 08:56:18;;;;;;;4.93;1.90;;;;;;;;;;5034534;28;20056;-88
2022/07/05 08:58:44;;;;;;;1.40;0.85;;;;;;;19.91;50.41;68977.66;5042384;28;20056;-87
2022/07/05 09:01:10;;;;;;;3.78;2.15;;;;;;;;;;5043525;28;20037;-86
2022/07/05 09:03:43;;;;;;;5.10;1.58;;;;;;;20.16;54.44;69010.50;5030792;28;20053;-86
2022/07/05 09:06:11;;;;;;;5.53;1.58;;;;;;;20.34;54.86;69030.50;5043620;28;20041;-87
2022/07/05 09:08:40;;;;;;;3.28;1.30;;;;;;;;;;5041983;28;20124;-86
2022/07/05 09:11:16;;;;;;;2.83;1.70;;;;;;;20.21;54.67;69014.06;5040848;28;20547;-86
2022/07/05 09:13:47;;;;;;;3.90;1.70;;;;;;;;;;5031262;28;20033;-87
2022/07/05 09:16:12;;;;;;;3.63;2.08;;;;;;;;;;5041973;28;20072;-87
2022/07/05 09:18:38;;;;;;;3.60;1.63;;;;;;;19.79;54.56;68969.34;5050435;28;20072;-88
2022/07/05 09:21:14;;;;;;;4.93;1.88;;;;;;;19.82;56.25;68972.75;5031507;28;20048;-87
2022/07/05 09:23:39;;;;;;;5.82;1.63;;;;;;;;;;5051925;28;20048;-87
2022/07/05 09:26:05;;;;;;;3.65;1.67;;;;;;;19.87;54.36;68978.47;5049218;22;20041;-88
2022/07/05 09:28:30;;;;;;;3.38;1.60;;;;;;;;;;5030188;28;20116;-88
2022/07/05 09:30:55;;;;;;;3.93;1.70;;;;;;;20.01;53.51;68994.47;5030876;28;20052;-88
2022/07/05 09:33:21;;;;;;;3.50;1.50;;;;;;;20.08;52.31;69001.34;5006773;28;20283;-88
2022/07/05 09:35:57;;;;;;;3.08;1.40;;;;;;;20.33;53.13;69029.34;5011424;28;20057;-88
2022/07/05 09:38:24;;;;;;;3.08;1.95;;;;;;;20.54;52.19;69052.81;5017472;28;20111;-88
2022/07/05 09:40:53;;;;;;;5.75;1.77;;;;;;;20.44;53.21;69047.91;5005699;28;20052;-88
2022/07/05 09:43:19;;;;;;;4.90;2.03;;;;;;;;;;4998801;28;20498;-88
2022/07/05 09:46:02;;;;;;;4.03;1.50;;;;;;;20.58;53.18;69057.41;5009795;28;20104;-88
2022/07/05 09:48:29;;;;;;;2.88;1.40;;;;;;;20.72;51.11;69073.97;5004335;28;20041;-88
2022/07/05 09:51:06;;;;;;;3.58;1.90;;;;;;;20.81;48.26;69083.69;5024366;28;20045;-87
2022/07/05 09:54:03;;;;;;;2.42;1.50;;;;;;;20.81;48.90;69089.13;4992272;28;20051;-89
2022/07/05 09:56:29;;;;;;;3.80;1.00;;;;;;;;;;4972455;28;20044;-88
2022/07/05 09:58:54;;;;;;;2.40;1.33;;;;;;;20.40;48.62;69037.34;5001736;28;20054;-88
2022/07/05 10:01:23;;;;;;;4.25;1.35;;;;;;;20.45;49.48;69043.06;4992867;28;20033;-87
2022/07/05 10:03:57;;;;;;;2.00;1.23;;;;;;;20.67;49.31;69064.97;5016300;28;20042;-88
2022/07/05 10:06:23;;;;;;;3.45;1.10;;;;;;;;;;5033030;28;20573;-88
2022/07/05 10:08:49;;;;;;;2.50;1.60;;;;;;;21.21;47.69;69122.91;5044347;28;20163;-88
2022/07/05 10:11:17;;;;;;;3.13;1.40;;;;;;;21.19;49.49;69126.03;5024682;28;20087;-88
2022/07/05 10:13:44;;;;;;;3.22;1.67;;;;;;;21.18;45.97;69124.88;5026797;28;20088;-88
2022/07/05 10:16:12;;;;;;;2.53;1.30;;;;;;;21.09;45.92;69114.56;4987201;28;20045;-88
2022/07/05 10:18:39;;;;;;;4.47;1.10;;;;;;;21.11;47.80;69114.16;4961143;28;20523;-88
2022/07/05 10:21:10;;;;;;;3.72;1.20;;;;;;;21.46;46.31;69153.66;4961844;28;20108;-88
2022/07/05 10:23:37;;;;;;;1.98;1.00;;;;;;;;;;4960792;28;20101;-88
2022/07/05 10:26:04;;;;;;;3.42;1.00;;;;;;;21.65;45.30;69177.53;4960091;28;20133;-88
2022/07/05 10:28:30;;;;;;;2.28;1.00;;;;;;;21.60;45.49;69171.81;4963657;28;20039;-87
2022/07/05 10:30:56;;;;;;;2.40;1.10;;;;;;;21.47;46.95;69157.50;4962403;28;20073;-79
2022/07/05 10:33:26;;;;;;;2.50;0.90;;;;;;;21.23;47.03;69130.59;4962878;28;20504;-80
2022/07/05 10:35:53;;;;;;;3.67;1.13;;;;;;;21.09;46.68;69120.00;4964570;28;20077;-80
2022/07/05 10:38:19;;;;;;;4.32;1.48;;;;;;;20.94;47.36;69095.88;4944899;28;20043;-80
2022/07/05 10:40:51;;;;;;;2.88;1.35;;;;;;;20.93;48.67;69094.72;4959519;28;20046;-80
2022/07/05 10:43:17;;;;;;;2.80;1.40;;;;;;;20.87;48.74;69090.56;4985380;28;20141;-80
2022/07/05 10:45:48;;;;;;;2.22;1.40;;;;;;;20.87;49.72;69090.56;4969459;28;20865;-78
2022/07/05 10:48:16;;;;;;;3.25;1.30;;;;;;;20.82;50.00;69084.84;4980668;28;20042;-78
2022/07/05 10:50:55;;;;;;;2.33;1.50;;;;;;;21.03;49.40;69107.72;4982354;28;20039;-79
2022/07/05 10:53:30;;;;;;;3.60;1.40;;;;;;;21.04;48.90;69109.44;4983778;28;20042;-78
2022/07/05 10:56:05;;;;;;;5.82;1.63;;;;;;;21.14;49.38;69120.88;4983441;28;20787;-79
2022/07/05 10:58:40;;;;;;;4.43;1.63;;;;;;;21.05;49.42;69105.16;4979339;28;20511;-79
2022/07/05 11:01:11;;;;;;;3.28;1.60;;;;;;;20.78;49.22;69077.56;4975291;28;20396;-78
2022/07/05 11:03:39;;;;;;;2.75;1.50;;;;;;;20.87;48.80;69090.00;4974391;28;20034;-79
2022/07/05 11:06:05;;;;;;;2.72;1.25;;;;;;;20.99;49.33;69103.72;4981636;28;20274;-79
2022/07/05 11:08:33;;;;;;;2.97;1.48;;;;;;;;;;5003065;28;20057;-79
2022/07/05 11:11:25;;;;;;;2.83;1.25;;;;;;;21.25;49.30;69129.59;5034123;28;20423;-79
2022/07/05 11:13:50;;;;;;;4.13;1.40;;;;;;;21.61;48.82;69170.84;5026808;28;20045;-79
2022/07/05 11:16:33;;;;;;;2.88;1.50;;;;;;;21.79;47.77;69190.84;5034951;28;20041;-79
2022/07/05 11:19:10;;;;;;;4.78;1.88;;;;;;;21.77;46.87;69191.25;5043082;28;20048;-79
2022/07/05 11:21:37;;;;;;;3.05;1.50;;;;;;;;;;5039079;28;20549;-79
2022/07/05 11:24:20;;;;;;;4.07;1.23;;;;;;;;;;5032750;28;20041;-79
2022/07/05 11:26:52;;;;;;;3.55;1.40;;;;;;;22.01;43.80;69217.59;5033287;28;20128;-79
2022/07/05 11:29:45;;;;;;;2.90;1.50;;;;;;;22.09;44.60;69221.31;5032755;28;20440;-79
2022/07/05 11:32:15;;;;;;;2.40;1.20;;;;;;;;;;5033421;28;20730;-79
2022/07/05 11:34:43;;;;;;;6.53;1.40;;;;;;;21.94;43.94;69206.88;5036011;28;20045;-79
2022/07/05 11:37:23;;;;;;;2.05;0.90;;;;;;;21.95;44.22;69205.31;5035757;28;20044;-79
2022/07/05 11:40:11;;;;;;;3.08;1.00;;;;;;;;;;5030803;28;20123;-79
2022/07/05 11:42:47;;;;;;;5.38;1.50;;;;;;;22.21;44.40;69237.22;5023911;28;20065;-79
2022/07/05 11:45:13;;;;;;;2.90;1.20;;;;;;;22.17;43.49;69232.63;5034366;28;20476;-79
2022/07/05 11:47:39;;;;;;;2.47;1.30;;;;;;;21.99;44.71;69213.19;5038107;28;20065;-79
2022/07/05 11:50:06;;;;;;;4.00;1.40;;;;;;;21.96;46.55;69211.88;5035638;28;20112;-79
2022/07/05 11:52:33;;;;;;;1.98;1.20;;;;;;;22.07;44.83;69221.78;5033330;28;20088;-79
2022/07/05 11:54:59;;;;;;;3.53;1.40;;;;;;;;;;5032894;28;20041;-79
2022/07/05 11:57:25;;;;;;;2.03;1.27;;;;;;;22.23;43.94;69242.22;5032803;28;20712;-80
2022/07/05 11:59:51;;;;;;;4.10;1.30;;;;;;;22.01;47.55;69215.47;5035657;28;20033;-79
2022/07/05 12:02:17;;;;;;;3.20;1.70;;;;;;;22.39;45.55;69260.56;5035098;28;20030;-80
2022/07/05 12:04:49;;;;;;;2.20;1.45;;;;;;;;;;5033794;28;20441;-79
2022/07/05 12:07:28;;;;;;;2.60;1.30;;;;;;;22.55;44.51;69275.03;5032039;28;20045;-80
2022/07/05 12:12:43;;;;;;;2.70;1.20;;;;;;;;;;5023051;28;20548;-79
2022/07/05 12:15:16;;;;;;;2.70;1.40;;;;;;;22.93;44.11;69320.69;5031936;28;20049;-79
2022/07/05 12:17:44;;;;;;;2.42;1.50;;;;;;;23.12;42.35;69339.19;5035167;28;20057;-79